sensor_id;sensor_type;location;lat;lon;timestamp;pressure;altitude;pressure_sealevel;temperature;humidity
33414;BME280;60055;41.884;12.534;2023-08-08T00:00:34;100870.47;;;23.80;55.76
33414;BME280;60055;41.884;12.534;2023-08-08T00:03:00;100877.41;;;23.73;56.43
33414;BME280;60055;41.884;12.534;2023-08-08T00:05:25;100873.00;;;23.62;56.55
33414;BME280;60055;41.884;12.534;2023-08-08T00:07:51;100875.75;;;23.30;57.93
33414;BME280;60055;41.884;12.534;2023-08-08T00:10:16;100875.16;;;23.06;58.49
33414;BME280;60055;41.884;12.534;2023-08-08T00:12:42;100873.41;;;23.16;58.41
33414;BME280;60055;41.884;12.534;2023-08-08T00:15:07;100874.56;;;23.03;59.27
33414;BME280;60055;41.884;12.534;2023-08-08T00:17:33;100876.22;;;22.94;58.97
33414;BME280;60055;41.884;12.534;2023-08-08T00:19:59;100876.16;;;22.84;59.37
33414;BME280;60055;41.884;12.534;2023-08-08T00:22:24;100881.69;;;23.04;59.02
33414;BME280;60055;41.884;12.534;2023-08-08T00:24:50;100883.72;;;23.11;58.55
33414;BME280;60055;41.884;12.534;2023-08-08T00:27:15;100887.13;;;22.92;59.13
33414;BME280;60055;41.884;12.534;2023-08-08T00:29:41;100884.69;;;23.10;58.40
33414;BME280;60055;41.884;12.534;2023-08-08T00:32:06;100880.28;;;23.09;58.90
33414;BME280;60055;41.884;12.534;2023-08-08T00:34:32;100891.47;;;23.05;58.64
33414;BME280;60055;41.884;12.534;2023-08-08T00:36:57;100891.97;;;22.99;58.99
33414;BME280;60055;41.884;12.534;2023-08-08T00:39:22;100894.94;;;22.96;58.68
33414;BME280;60055;41.884;12.534;2023-08-08T00:44:13;100896.44;;;22.88;58.94
33414;BME280;60055;41.884;12.534;2023-08-08T00:46:39;100894.00;;;22.85;59.14
33414;BME280;60055;41.884;12.534;2023-08-08T00:49:04;100901.38;;;22.83;59.04
33414;BME280;60055;41.884;12.534;2023-08-08T00:51:30;100891.53;;;22.94;58.62
33414;BME280;60055;41.884;12.534;2023-08-08T00:53:56;100898.63;;;22.95;58.34
33414;BME280;60055;41.884;12.534;2023-08-08T00:56:22;100893.16;;;22.85;58.73
33414;BME280;60055;41.884;12.534;2023-08-08T00:58:48;100891.66;;;22.92;58.53
33414;BME280;60055;41.884;12.534;2023-08-08T01:01:16;100893.16;;;22.85;59.12
33414;BME280;60055;41.884;12.534;2023-08-08T01:03:42;100891.66;;;22.92;58.32
33414;BME280;60055;41.884;12.534;2023-08-08T01:06:29;100898.38;;;22.98;58.26
33414;BME280;60055;41.884;12.534;2023-08-08T01:09:00;100892.13;;;22.97;58.68
33414;BME280;60055;41.884;12.534;2023-08-08T01:11:31;100900.53;;;23.04;58.71
33414;BME280;60055;41.884;12.534;2023-08-08T01:13:58;100901.00;;;22.88;58.63
33414;BME280;60055;41.884;12.534;2023-08-08T01:16:25;100906.59;;;22.85;59.15
33414;BME280;60055;41.884;12.534;2023-08-08T01:18:52;100909.31;;;22.85;58.77
33414;BME280;60055;41.884;12.534;2023-08-08T01:21:18;100904.38;;;22.69;59.56
33414;BME280;60055;41.884;12.534;2023-08-08T01:23:53;100907.66;;;22.62;59.74
33414;BME280;60055;41.884;12.534;2023-08-08T01:26:20;100919.22;;;22.41;60.48
33414;BME280;60055;41.884;12.534;2023-08-08T01:28:47;100922.03;;;22.40;60.25
33414;BME280;60055;41.884;12.534;2023-08-08T01:31:12;100918.34;;;22.41;60.08
33414;BME280;60055;41.884;12.534;2023-08-08T01:33:38;100917.75;;;22.37;60.22
33414;BME280;60055;41.884;12.534;2023-08-08T01:36:10;100926.16;;;22.55;59.70
33414;BME280;60055;41.884;12.534;2023-08-08T01:38:41;100920.22;;;22.40;60.13
33414;BME280;60055;41.884;12.534;2023-08-08T01:41:08;100919.97;;;22.32;60.05
33414;BME280;60055;41.884;12.534;2023-08-08T01:43:35;100923.78;;;22.30;60.29
33414;BME280;60055;41.884;12.534;2023-08-08T01:46:03;100922.41;;;22.24;59.88
33414;BME280;60055;41.884;12.534;2023-08-08T01:48:29;100917.56;;;22.07;60.61
33414;BME280;60055;41.884;12.534;2023-08-08T01:50:54;100929.31;;;22.06;60.16
33414;BME280;60055;41.884;12.534;2023-08-08T01:53:20;100921.59;;;22.13;60.13
33414;BME280;60055;41.884;12.534;2023-08-08T01:55:45;100921.97;;;22.19;59.81
33414;BME280;60055;41.884;12.534;2023-08-08T01:58:11;100925.97;;;22.25;59.73
33414;BME280;60055;41.884;12.534;2023-08-08T02:00:36;100921.09;;;22.30;59.32
33414;BME280;60055;41.884;12.534;2023-08-08T02:03:02;100930.78;;;22.10;59.66
33414;BME280;60055;41.884;12.534;2023-08-08T02:05:28;100928.56;;;22.26;59.22
33414;BME280;60055;41.884;12.534;2023-08-08T02:07:53;100936.63;;;22.26;58.89
33414;BME280;60055;41.884;12.534;2023-08-08T02:10:19;100938.09;;;22.30;58.93
33414;BME280;60055;41.884;12.534;2023-08-08T02:12:44;100946.38;;;22.27;58.83
33414;BME280;60055;41.884;12.534;2023-08-08T02:15:10;100953.72;;;22.36;58.94
33414;BME280;60055;41.884;12.534;2023-08-08T02:17:37;100950.69;;;22.30;58.94
33414;BME280;60055;41.884;12.534;2023-08-08T02:20:03;100952.72;;;22.37;58.79
33414;BME280;60055;41.884;12.534;2023-08-08T02:22:29;100951.25;;;22.45;58.68
33414;BME280;60055;41.884;12.534;2023-08-08T02:24:54;100948.09;;;22.51;58.31
33414;BME280;60055;41.884;12.534;2023-08-08T02:27:19;100947.34;;;22.49;58.45
33414;BME280;60055;41.884;12.534;2023-08-08T02:29:45;100945.50;;;22.49;58.29
33414;BME280;60055;41.884;12.534;2023-08-08T02:32:10;100940.72;;;22.53;58.47
33414;BME280;60055;41.884;12.534;2023-08-08T02:34:36;100935.59;;;22.38;58.41
33414;BME280;60055;41.884;12.534;2023-08-08T02:37:01;100933.63;;;22.52;58.16
33414;BME280;60055;41.884;12.534;2023-08-08T02:39:27;100935.00;;;22.46;57.97
33414;BME280;60055;41.884;12.534;2023-08-08T02:41:52;100937.34;;;22.39;58.50
33414;BME280;60055;41.884;12.534;2023-08-08T02:44:18;100940.63;;;22.32;58.44
33414;BME280;60055;41.884;12.534;2023-08-08T02:46:44;100936.72;;;22.25;58.73
33414;BME280;60055;41.884;12.534;2023-08-08T02:49:10;100940.78;;;22.30;58.23
33414;BME280;60055;41.884;12.534;2023-08-08T02:51:35;100951.28;;;22.22;58.39
33414;BME280;60055;41.884;12.534;2023-08-08T02:54:01;100950.69;;;22.30;57.77
33414;BME280;60055;41.884;12.534;2023-08-08T02:56:26;100948.84;;;22.30;58.24
33414;BME280;60055;41.884;12.534;2023-08-08T02:58:51;100955.22;;;22.29;57.96
33414;BME280;60055;41.884;12.534;2023-08-08T03:01:17;100968.41;;;22.21;58.51
33414;BME280;60055;41.884;12.534;2023-08-08T03:03:42;100966.09;;;22.06;58.78
33414;BME280;60055;41.884;12.534;2023-08-08T03:06:08;100959.97;;;22.04;58.96
33414;BME280;60055;41.884;12.534;2023-08-08T03:08:33;100957.31;;;21.93;58.25
33414;BME280;60055;41.884;12.534;2023-08-08T03:10:59;100954.72;;;22.02;58.65
33414;BME280;60055;41.884;12.534;2023-08-08T03:13:24;100955.69;;;22.01;58.21
33414;BME280;60055;41.884;12.534;2023-08-08T03:15:49;100950.81;;;22.06;58.00
33414;BME280;60055;41.884;12.534;2023-08-08T03:18:15;100950.94;;;21.94;57.54
33414;BME280;60055;41.884;12.534;2023-08-08T03:20:40;100947.53;;;21.92;57.86
33414;BME280;60055;41.884;12.534;2023-08-08T03:23:06;100941.91;;;22.06;57.26
33414;BME280;60055;41.884;12.534;2023-08-08T03:25:31;100949.47;;;22.12;57.23
33414;BME280;60055;41.884;12.534;2023-08-08T03:27:57;100942.25;;;21.90;57.41
33414;BME280;60055;41.884;12.534;2023-08-08T03:30:22;100949.34;;;21.91;57.26
33414;BME280;60055;41.884;12.534;2023-08-08T03:32:47;100946.41;;;21.83;57.38
33414;BME280;60055;41.884;12.534;2023-08-08T03:35:13;100951.94;;;21.93;57.30
33414;BME280;60055;41.884;12.534;2023-08-08T03:37:40;100960.84;;;21.93;57.34
33414;BME280;60055;41.884;12.534;2023-08-08T03:40:06;100964.13;;;21.85;57.20
33414;BME280;60055;41.884;12.534;2023-08-08T03:42:33;100966.66;;;21.87;57.64
33414;BME280;60055;41.884;12.534;2023-08-08T03:44:58;100966.09;;;21.95;57.91
33414;BME280;60055;41.884;12.534;2023-08-08T03:47:24;100962.03;;;21.89;57.39
33414;BME280;60055;41.884;12.534;2023-08-08T03:49:49;100958.66;;;21.98;56.83
33414;BME280;60055;41.884;12.534;2023-08-08T03:52:14;100962.69;;;21.93;56.86
33414;BME280;60055;41.884;12.534;2023-08-08T03:54:40;100971.94;;;21.88;56.85
33414;BME280;60055;41.884;12.534;2023-08-08T03:57:05;100970.34;;;21.86;57.17
33414;BME280;60055;41.884;12.534;2023-08-08T03:59:31;100976.94;;;21.82;57.01
33414;BME280;60055;41.884;12.534;2023-08-08T04:01:56;100968.38;;;21.77;57.71
33414;BME280;60055;41.884;12.534;2023-08-08T04:04:22;100970.84;;;21.91;57.07
33414;BME280;60055;41.884;12.534;2023-08-08T04:06:47;100976.22;;;21.91;57.23
33414;BME280;60055;41.884;12.534;2023-08-08T04:09:13;100976.69;;;21.63;57.77
33414;BME280;60055;41.884;12.534;2023-08-08T04:11:38;100985.94;;;21.59;58.04
33414;BME280;60055;41.884;12.534;2023-08-08T04:14:03;100986.22;;;21.78;57.65
33414;BME280;60055;41.884;12.534;2023-08-08T04:16:29;100991.97;;;21.84;57.19
33414;BME280;60055;41.884;12.534;2023-08-08T04:18:54;100989.63;;;21.80;57.19
33414;BME280;60055;41.884;12.534;2023-08-08T04:21:20;100984.38;;;21.56;57.60
33414;BME280;60055;41.884;12.534;2023-08-08T04:23:45;100992.91;;;21.61;57.48
33414;BME280;60055;41.884;12.534;2023-08-08T04:26:11;101000.34;;;21.58;57.86
33414;BME280;60055;41.884;12.534;2023-08-08T04:28:36;100998.38;;;21.49;58.27
33414;BME280;60055;41.884;12.534;2023-08-08T04:31:02;100998.53;;;21.58;58.11
33414;BME280;60055;41.884;12.534;2023-08-08T04:33:27;101000.88;;;21.63;57.88
33414;BME280;60055;41.884;12.534;2023-08-08T04:35:53;101006.00;;;21.77;57.65
33414;BME280;60055;41.884;12.534;2023-08-08T04:38:18;101005.22;;;21.99;57.50
33414;BME280;60055;41.884;12.534;2023-08-08T04:40:43;101011.06;;;22.04;57.09
33414;BME280;60055;41.884;12.534;2023-08-08T04:43:09;101010.97;;;22.05;56.79
33414;BME280;60055;41.884;12.534;2023-08-08T04:45:34;101007.28;;;22.17;56.87
33414;BME280;60055;41.884;12.534;2023-08-08T04:48:00;101010.34;;;22.24;56.12
33414;BME280;60055;41.884;12.534;2023-08-08T04:50:25;101010.19;;;22.48;56.24
33414;BME280;60055;41.884;12.534;2023-08-08T04:52:50;101011.47;;;22.44;55.88
33414;BME280;60055;41.884;12.534;2023-08-08T04:55:16;101009.94;;;22.84;55.28
33414;BME280;60055;41.884;12.534;2023-08-08T04:57:41;101001.31;;;23.01;54.68
33414;BME280;60055;41.884;12.534;2023-08-08T05:00:08;101015.31;;;22.84;52.43
33414;BME280;60055;41.884;12.534;2023-08-08T05:02:34;101015.59;;;22.81;51.64
33414;BME280;60055;41.884;12.534;2023-08-08T05:05:00;101025.59;;;22.90;51.80
33414;BME280;60055;41.884;12.534;2023-08-08T05:07:26;101022.94;;;23.11;52.19
33414;BME280;60055;41.884;12.534;2023-08-08T05:09:52;101030.16;;;23.21;51.34
33414;BME280;60055;41.884;12.534;2023-08-08T05:12:17;101032.50;;;23.47;49.40
33414;BME280;60055;41.884;12.534;2023-08-08T05:14:43;101030.66;;;23.47;47.69
33414;BME280;60055;41.884;12.534;2023-08-08T05:17:08;101028.94;;;23.67;47.10
33414;BME280;60055;41.884;12.534;2023-08-08T05:19:33;101037.00;;;23.78;47.04
33414;BME280;60055;41.884;12.534;2023-08-08T05:21:59;101042.97;;;24.02;46.63
33414;BME280;60055;41.884;12.534;2023-08-08T05:24:26;101046.75;;;24.20;45.58
33414;BME280;60055;41.884;12.534;2023-08-08T05:26:51;101051.69;;;24.36;45.39
33414;BME280;60055;41.884;12.534;2023-08-08T05:29:18;101050.63;;;24.27;43.58
33414;BME280;60055;41.884;12.534;2023-08-08T05:31:44;101060.25;;;24.51;43.40
33414;BME280;60055;41.884;12.534;2023-08-08T05:34:09;101059.53;;;24.49;44.12
33414;BME280;60055;41.884;12.534;2023-08-08T05:36:34;101056.50;;;24.82;42.62
33414;BME280;60055;41.884;12.534;2023-08-08T05:39:00;101053.16;;;24.89;41.20
33414;BME280;60055;41.884;12.534;2023-08-08T05:41:25;101059.22;;;24.82;40.57
33414;BME280;60055;41.884;12.534;2023-08-08T05:43:51;101061.59;;;25.15;40.74
33414;BME280;60055;41.884;12.534;2023-08-08T05:46:16;101062.91;;;25.40;40.25
33414;BME280;60055;41.884;12.534;2023-08-08T05:48:41;101069.41;;;25.18;39.81
33414;BME280;60055;41.884;12.534;2023-08-08T05:51:07;101079.53;;;24.67;41.11
33414;BME280;60055;41.884;12.534;2023-08-08T05:53:32;101077.56;;;25.37;40.04
33414;BME280;60055;41.884;12.534;2023-08-08T05:55:58;101078.66;;;25.16;40.46
33414;BME280;60055;41.884;12.534;2023-08-08T05:58:23;101090.63;;;25.13;40.36
33414;BME280;60055;41.884;12.534;2023-08-08T06:00:49;101087.38;;;24.79;40.56
33414;BME280;60055;41.884;12.534;2023-08-08T06:03:15;101089.28;;;24.98;40.54
33414;BME280;60055;41.884;12.534;2023-08-08T06:05:40;101091.81;;;25.59;40.07
33414;BME280;60055;41.884;12.534;2023-08-08T06:08:06;101085.47;;;26.06;38.47
33414;BME280;60055;41.884;12.534;2023-08-08T06:10:36;101087.19;;;26.17;38.05
33414;BME280;60055;41.884;12.534;2023-08-08T06:13:02;101092.19;;;26.21;37.65
33414;BME280;60055;41.884;12.534;2023-08-08T06:15:27;101095.63;;;26.51;37.34
33414;BME280;60055;41.884;12.534;2023-08-08T06:17:53;101087.72;;;26.39;36.57
33414;BME280;60055;41.884;12.534;2023-08-08T06:20:18;101084.41;;;26.82;36.02
33414;BME280;60055;41.884;12.534;2023-08-08T06:22:43;101081.53;;;26.84;35.74
33414;BME280;60055;41.884;12.534;2023-08-08T06:25:09;101088.91;;;26.91;35.90
33414;BME280;60055;41.884;12.534;2023-08-08T06:27:35;101086.81;;;27.30;34.87
33414;BME280;60055;41.884;12.534;2023-08-08T06:30:00;101092.25;;;27.48;34.97
33414;BME280;60055;41.884;12.534;2023-08-08T06:32:26;101083.13;;;26.50;36.88
33414;BME280;60055;41.884;12.534;2023-08-08T06:34:51;101094.38;;;27.09;36.37
33414;BME280;60055;41.884;12.534;2023-08-08T06:37:16;101094.59;;;26.61;38.12
33414;BME280;60055;41.884;12.534;2023-08-08T06:39:42;101092.00;;;26.69;37.92
33414;BME280;60055;41.884;12.534;2023-08-08T06:42:07;101084.78;;;26.87;38.21
33414;BME280;60055;41.884;12.534;2023-08-08T06:44:33;101083.66;;;26.80;38.88
33414;BME280;60055;41.884;12.534;2023-08-08T06:46:59;101082.09;;;27.32;38.65
33414;BME280;60055;41.884;12.534;2023-08-08T06:49:24;101082.97;;;27.51;38.81
33414;BME280;60055;41.884;12.534;2023-08-08T06:51:50;101094.09;;;27.30;39.60
33414;BME280;60055;41.884;12.534;2023-08-08T06:54:15;101098.09;;;27.71;39.05
33414;BME280;60055;41.884;12.534;2023-08-08T06:56:40;101089.50;;;28.01;38.33
33414;BME280;60055;41.884;12.534;2023-08-08T06:59:06;101085.75;;;28.46;38.31
33414;BME280;60055;41.884;12.534;2023-08-08T07:01:31;101091.06;;;27.86;39.06
33414;BME280;60055;41.884;12.534;2023-08-08T07:03:57;101098.41;;;27.50;39.77
33414;BME280;60055;41.884;12.534;2023-08-08T07:06:22;101096.94;;;27.99;39.42
33414;BME280;60055;41.884;12.534;2023-08-08T07:08:48;101093.88;;;27.94;39.54
33414;BME280;60055;41.884;12.534;2023-08-08T07:11:13;101105.59;;;27.77;39.99
33414;BME280;60055;41.884;12.534;2023-08-08T07:13:38;101104.25;;;28.42;38.97
33414;BME280;60055;41.884;12.534;2023-08-08T07:16:04;101108.22;;;27.86;39.89
33414;BME280;60055;41.884;12.534;2023-08-08T07:18:29;101109.72;;;27.81;39.46
33414;BME280;60055;41.884;12.534;2023-08-08T07:20:54;101111.47;;;28.33;39.36
33414;BME280;60055;41.884;12.534;2023-08-08T07:23:22;101102.88;;;27.95;38.61
33414;BME280;60055;41.884;12.534;2023-08-08T07:25:47;101113.34;;;28.07;38.20
33414;BME280;60055;41.884;12.534;2023-08-08T07:28:13;101107.19;;;28.57;37.24
33414;BME280;60055;41.884;12.534;2023-08-08T07:30:40;101110.84;;;27.96;37.56
33414;BME280;60055;41.884;12.534;2023-08-08T07:33:06;101113.94;;;28.53;37.11
33414;BME280;60055;41.884;12.534;2023-08-08T07:35:33;101117.59;;;28.95;36.18
33414;BME280;60055;41.884;12.534;2023-08-08T07:37:58;101123.09;;;29.11;35.26
33414;BME280;60055;41.884;12.534;2023-08-08T07:40:23;101107.19;;;29.32;34.86
33414;BME280;60055;41.884;12.534;2023-08-08T07:42:49;101113.41;;;29.09;35.58
33414;BME280;60055;41.884;12.534;2023-08-08T07:45:15;101110.28;;;29.62;34.53
33414;BME280;60055;41.884;12.534;2023-08-08T07:47:40;101098.59;;;29.94;33.89
33414;BME280;60055;41.884;12.534;2023-08-08T07:50:08;101100.44;;;29.77;33.68
33414;BME280;60055;41.884;12.534;2023-08-08T07:52:37;101092.13;;;29.86;34.17
33414;BME280;60055;41.884;12.534;2023-08-08T07:55:04;101097.28;;;29.23;34.65
33414;BME280;60055;41.884;12.534;2023-08-08T07:57:31;101106.63;;;28.71;35.97
33414;BME280;60055;41.884;12.534;2023-08-08T07:59:58;101109.72;;;28.84;35.76
33414;BME280;60055;41.884;12.534;2023-08-08T08:02:24;101111.03;;;28.46;36.54
33414;BME280;60055;41.884;12.534;2023-08-08T08:04:49;101100.53;;;28.51;36.09
33414;BME280;60055;41.884;12.534;2023-08-08T08:07:15;101106.91;;;29.02;35.17
33414;BME280;60055;41.884;12.534;2023-08-08T08:09:40;101103.84;;;29.05;36.38
33414;BME280;60055;41.884;12.534;2023-08-08T08:12:08;101115.19;;;29.26;35.46
33414;BME280;60055;41.884;12.534;2023-08-08T08:14:33;101107.75;;;29.52;34.79
33414;BME280;60055;41.884;12.534;2023-08-08T08:16:59;101102.81;;;29.72;34.85
33414;BME280;60055;41.884;12.534;2023-08-08T08:19:24;101093.44;;;30.23;34.06
33414;BME280;60055;41.884;12.534;2023-08-08T08:21:50;101091.00;;;30.60;33.14
33414;BME280;60055;41.884;12.534;2023-08-08T08:24:15;101094.06;;;30.57;33.14
33414;BME280;60055;41.884;12.534;2023-08-08T08:26:40;101090.13;;;30.68;33.01
33414;BME280;60055;41.884;12.534;2023-08-08T08:29:06;101092.16;;;31.13;32.73
33414;BME280;60055;41.884;12.534;2023-08-08T08:31:32;101091.13;;;31.36;31.92
33414;BME280;60055;41.884;12.534;2023-08-08T08:33:57;101087.38;;;31.07;31.71
33414;BME280;60055;41.884;12.534;2023-08-08T08:36:23;101090.53;;;30.40;33.17
33414;BME280;60055;41.884;12.534;2023-08-08T08:38:48;101087.16;;;30.85;32.92
33414;BME280;60055;41.884;12.534;2023-08-08T08:41:17;101077.47;;;31.14;32.47
33414;BME280;60055;41.884;12.534;2023-08-08T08:43:44;101083.66;;;30.69;32.59
33414;BME280;60055;41.884;12.534;2023-08-08T08:46:11;101078.22;;;30.53;32.98
33414;BME280;60055;41.884;12.534;2023-08-08T08:48:37;101073.72;;;30.13;33.83
33414;BME280;60055;41.884;12.534;2023-08-08T08:51:03;101081.16;;;30.43;33.01
33414;BME280;60055;41.884;12.534;2023-08-08T08:53:29;101083.28;;;30.72;32.95
33414;BME280;60055;41.884;12.534;2023-08-08T08:55:56;101085.41;;;30.46;33.34
33414;BME280;60055;41.884;12.534;2023-08-08T08:58:22;101086.81;;;30.80;33.26
33414;BME280;60055;41.884;12.534;2023-08-08T09:00:50;101092.38;;;30.95;32.52
33414;BME280;60055;41.884;12.534;2023-08-08T09:03:16;101077.53;;;30.59;32.65
33414;BME280;60055;41.884;12.534;2023-08-08T09:05:42;101081.81;;;30.53;32.69
33414;BME280;60055;41.884;12.534;2023-08-08T09:08:10;101086.03;;;30.64;33.40
33414;BME280;60055;41.884;12.534;2023-08-08T09:10:37;101073.41;;;30.63;32.66
33414;BME280;60055;41.884;12.534;2023-08-08T09:13:03;101082.50;;;30.94;32.62
33414;BME280;60055;41.884;12.534;2023-08-08T09:15:32;101081.06;;;31.06;32.38
33414;BME280;60055;41.884;12.534;2023-08-08T09:17:58;101076.53;;;30.99;32.16
33414;BME280;60055;41.884;12.534;2023-08-08T09:20:25;101082.03;;;30.82;32.56
33414;BME280;60055;41.884;12.534;2023-08-08T09:22:53;101085.97;;;30.80;32.26
33414;BME280;60055;41.884;12.534;2023-08-08T09:25:18;101079.59;;;30.57;32.91
33414;BME280;60055;41.884;12.534;2023-08-08T09:27:44;101079.88;;;30.70;32.91
33414;BME280;60055;41.884;12.534;2023-08-08T09:30:10;101076.22;;;30.47;33.35
33414;BME280;60055;41.884;12.534;2023-08-08T09:32:37;101076.38;;;30.37;33.14
33414;BME280;60055;41.884;12.534;2023-08-08T09:35:03;101087.97;;;30.86;32.70
33414;BME280;60055;41.884;12.534;2023-08-08T09:37:29;101081.88;;;30.13;34.20
33414;BME280;60055;41.884;12.534;2023-08-08T09:40:01;101082.34;;;30.32;33.60
33414;BME280;60055;41.884;12.534;2023-08-08T09:42:28;101081.50;;;30.48;32.87
33414;BME280;60055;41.884;12.534;2023-08-08T09:44:58;101081.56;;;30.79;32.65
33414;BME280;60055;41.884;12.534;2023-08-08T09:47:24;101079.56;;;31.04;32.35
33414;BME280;60055;41.884;12.534;2023-08-08T09:49:50;101084.22;;;30.87;31.55
33414;BME280;60055;41.884;12.534;2023-08-08T09:52:16;101080.31;;;30.34;32.09
33414;BME280;60055;41.884;12.534;2023-08-08T09:54:42;101081.19;;;29.78;33.45
33414;BME280;60055;41.884;12.534;2023-08-08T09:57:08;101079.16;;;29.72;33.67
33414;BME280;60055;41.884;12.534;2023-08-08T09:59:34;101080.66;;;29.26;34.31
33414;BME280;60055;41.884;12.534;2023-08-08T10:02:01;101081.56;;;29.01;34.28
33414;BME280;60055;41.884;12.534;2023-08-08T10:04:27;101084.81;;;29.05;33.96
33414;BME280;60055;41.884;12.534;2023-08-08T10:06:53;101081.28;;;29.12;34.30
33414;BME280;60055;41.884;12.534;2023-08-08T10:09:19;101079.25;;;29.22;34.30
33414;BME280;60055;41.884;12.534;2023-08-08T10:11:45;101080.19;;;29.55;33.88
33414;BME280;60055;41.884;12.534;2023-08-08T10:14:12;101067.44;;;29.88;32.53
33414;BME280;60055;41.884;12.534;2023-08-08T10:16:39;101068.97;;;29.66;32.88
33414;BME280;60055;41.884;12.534;2023-08-08T10:19:07;101077.63;;;29.62;33.23
33414;BME280;60055;41.884;12.534;2023-08-08T10:21:36;101078.66;;;28.95;33.52
33414;BME280;60055;41.884;12.534;2023-08-08T10:24:06;101079.16;;;28.82;33.84
33414;BME280;60055;41.884;12.534;2023-08-08T10:26:32;101077.09;;;28.84;32.88
33414;BME280;60055;41.884;12.534;2023-08-08T10:29:00;101075.09;;;28.86;32.50
33414;BME280;60055;41.884;12.534;2023-08-08T10:31:26;101080.38;;;29.04;32.38
33414;BME280;60055;41.884;12.534;2023-08-08T10:34:02;101080.16;;;29.31;32.34
33414;BME280;60055;41.884;12.534;2023-08-08T10:36:43;101069.78;;;29.51;32.23
33414;BME280;60055;41.884;12.534;2023-08-08T10:39:14;101067.06;;;29.75;30.93
33414;BME280;60055;41.884;12.534;2023-08-08T10:41:50;101065.91;;;29.94;30.02
33414;BME280;60055;41.884;12.534;2023-08-08T10:44:24;101067.25;;;30.14;28.95
33414;BME280;60055;41.884;12.534;2023-08-08T10:46:51;101068.78;;;30.08;28.77
33414;BME280;60055;41.884;12.534;2023-08-08T10:49:18;101068.09;;;30.14;28.49
33414;BME280;60055;41.884;12.534;2023-08-08T10:51:45;101068.22;;;30.37;29.09
33414;BME280;60055;41.884;12.534;2023-08-08T10:54:14;101071.63;;;30.47;29.01
33414;BME280;60055;41.884;12.534;2023-08-08T10:56:40;101070.34;;;30.66;28.58
33414;BME280;60055;41.884;12.534;2023-08-08T10:59:36;101067.13;;;30.62;27.75
33414;BME280;60055;41.884;12.534;2023-08-08T11:02:02;101070.38;;;30.58;28.67
33414;BME280;60055;41.884;12.534;2023-08-08T11:04:28;101062.94;;;30.44;28.76
33414;BME280;60055;41.884;12.534;2023-08-08T11:06:55;101052.91;;;30.28;27.87
33414;BME280;60055;41.884;12.534;2023-08-08T11:09:22;101061.22;;;30.42;27.51
33414;BME280;60055;41.884;12.534;2023-08-08T11:11:48;101061.84;;;30.69;27.09
33414;BME280;60055;41.884;12.534;2023-08-08T11:14:16;101067.59;;;30.66;27.36
33414;BME280;60055;41.884;12.534;2023-08-08T11:16:43;101063.09;;;30.89;27.29
33414;BME280;60055;41.884;12.534;2023-08-08T11:19:09;101063.75;;;30.91;27.65
33414;BME280;60055;41.884;12.534;2023-08-08T11:21:41;101055.53;;;30.68;28.25
33414;BME280;60055;41.884;12.534;2023-08-08T11:24:07;101054.38;;;30.55;30.55
33414;BME280;60055;41.884;12.534;2023-08-08T11:26:37;101061.41;;;30.80;31.51
33414;BME280;60055;41.884;12.534;2023-08-08T11:29:04;101057.19;;;30.77;32.25
33414;BME280;60055;41.884;12.534;2023-08-08T11:31:31;101053.38;;;30.48;34.53
33414;BME280;60055;41.884;12.534;2023-08-08T11:33:59;101055.38;;;30.62;34.75
33414;BME280;60055;41.884;12.534;2023-08-08T11:36:26;101055.47;;;30.76;34.63
33414;BME280;60055;41.884;12.534;2023-08-08T11:38:52;101062.06;;;30.98;34.66
33414;BME280;60055;41.884;12.534;2023-08-08T11:41:20;101051.44;;;31.03;34.77
33414;BME280;60055;41.884;12.534;2023-08-08T11:43:48;101057.28;;;30.92;34.65
33414;BME280;60055;41.884;12.534;2023-08-08T11:46:14;101054.03;;;30.97;34.32
33414;BME280;60055;41.884;12.534;2023-08-08T11:48:40;101054.28;;;31.10;33.85
33414;BME280;60055;41.884;12.534;2023-08-08T11:51:07;101050.19;;;31.14;33.72
33414;BME280;60055;41.884;12.534;2023-08-08T11:53:34;101051.56;;;31.10;33.76
33414;BME280;60055;41.884;12.534;2023-08-08T11:56:00;101051.63;;;31.02;33.36
33414;BME280;60055;41.884;12.534;2023-08-08T11:58:26;101057.50;;;31.13;33.43
33414;BME280;60055;41.884;12.534;2023-08-08T12:00:52;101054.97;;;31.12;33.40
33414;BME280;60055;41.884;12.534;2023-08-08T12:03:19;101055.81;;;30.81;34.11
33414;BME280;60055;41.884;12.534;2023-08-08T12:05:46;101052.56;;;30.78;34.22
33414;BME280;60055;41.884;12.534;2023-08-08T12:08:12;101058.19;;;30.76;34.55
33414;BME280;60055;41.884;12.534;2023-08-08T12:10:38;101059.19;;;30.83;34.27
33414;BME280;60055;41.884;12.534;2023-08-08T12:13:04;101059.06;;;30.77;34.18
33414;BME280;60055;41.884;12.534;2023-08-08T12:15:32;101048.69;;;31.03;33.89
33414;BME280;60055;41.884;12.534;2023-08-08T12:18:01;101052.75;;;30.76;34.30
33414;BME280;60055;41.884;12.534;2023-08-08T12:20:30;101053.88;;;30.90;34.08
33414;BME280;60055;41.884;12.534;2023-08-08T12:22:57;101044.72;;;31.14;34.10
33414;BME280;60055;41.884;12.534;2023-08-08T12:25:22;101046.31;;;31.08;34.18
33414;BME280;60055;41.884;12.534;2023-08-08T12:27:48;101043.91;;;30.74;34.80
33414;BME280;60055;41.884;12.534;2023-08-08T12:30:14;101053.66;;;30.69;34.75
33414;BME280;60055;41.884;12.534;2023-08-08T12:32:40;101044.63;;;30.68;34.41
33414;BME280;60055;41.884;12.534;2023-08-08T12:35:06;101036.16;;;30.86;34.25
33414;BME280;60055;41.884;12.534;2023-08-08T12:37:32;101039.22;;;30.99;33.97